Previous Day
Next Day
Current Day
SHEF ID: FVSO2 FAIRVIEW
STATION TYPE: Mesonet
PRECIP AIR-TEMP WIND-DIRWIND-SPEED REL-HUMID SOLAR-RAD
in F deg mph % W/m2
Raw-Meson Raw-Meson Raw-Meson Raw-Meson Raw-Meson Raw-Meson
(US/Central)
05/31 00:00 0.00 64.53 132.75 6.99 92.50 0.00
05/31 01:00 0.00 64.13 125.75 5.31 91.75 0.00
05/31 02:00 0.00 62.92 113.50 3.75 94.25 0.00
05/31 03:00 0.14 62.91 114.25 2.46 95.25 0.00
05/31 04:00 0.41 62.60 123.00 3.47 96.75 0.00
05/31 05:00 0.21 62.15 128.00 3.47 98.00 0.00
05/31 06:00 0.33 62.02 124.00 4.03 99.00 0.00
05/31 07:00 0.15 61.56 114.75 8.11 99.00 0.75
05/31 08:00 0.13 61.25 119.25 10.12 99.00 5.50
05/31 09:00 0.10 60.98 114.75 11.46 99.00 57.50
05/31 10:00 0.24 60.98 55.00 4.75 98.50 38.75
05/31 11:00 0.07 60.84 95.25 5.81 98.50 99.00
05/31 12:00 0.01 61.16 77.00 8.84 98.00 190.00
05/31 13:00 0.00 62.11 68.00 9.06 97.00 299.75
05/31 14:00 0.00 62.10 69.25 10.85 93.75 255.00
05/31 15:00 0.00 63.23 58.50 11.13 89.50 297.25
05/31 16:00 0.00 64.53 40.50 10.91 86.75 366.50
05/31 17:00 0.01 64.40 36.50 10.29 86.25 227.50
05/31 18:00 0.00 62.87 66.50 8.89 91.25 106.00
05/31 19:00 0.00 61.74 76.00 6.38 96.00 89.75
05/31 20:00 0.00 60.44 75.25 7.38 96.50 22.75
05/31 21:00 0.00 59.63 63.00 8.16 96.00 3.00
05/31 22:00 0.00 59.27 43.25 7.04 94.50 0.00
05/31 23:00 ---- 59.05 37.75 5.87 91.75 0.00